<?xml version="1.0" encoding="UTF-8" standalone="no" ?>
<gpx xmlns="http://www.topografix.com/GPX/1/1" xmlns:xsi="http://www.w3.org/2001/XMLSchema-instance" xsi:schemaLocation="http://www.topografix.com/GPX/1/1 http://www.topografix.com/GPX/1/1/gpx.xsd" version="1.1" creator="VisuGPX - https://www.visugpx.com">
  <metadata>
    <name>StHilaireForet_</name>
    <desc><![CDATA[gnerando idor:7848802]]></desc>
  </metadata>
  <trk>
    <name><![CDATA[StHilaireForet_6.8km-7848802]]></name>
    <extensions>
      <line xmlns="http://www.topografix.com/GPX/gpx_style/0/2">
        <color>0000FF</color>
        <width>4</width>
      </line>
    </extensions>
    <trkseg>
      <trkpt lat="46.44766" lon="-1.52492">
        <ele>17</ele>
        <time>2023-11-13T06:34:53Z</time>
      </trkpt>
      <trkpt lat="46.44823" lon="-1.52559">
        <ele>19</ele>
        <time>2023-11-13T06:36:31Z</time>
      </trkpt>
      <trkpt lat="46.45223" lon="-1.52508">
        <ele>16</ele>
        <time>2023-11-13T06:45:27Z</time>
      </trkpt>
      <trkpt lat="46.45246" lon="-1.52414">
        <ele>16</ele>
        <time>2023-11-13T06:46:58Z</time>
      </trkpt>
      <trkpt lat="46.45202" lon="-1.52353">
        <ele>19</ele>
        <time>2023-11-13T06:48:20Z</time>
      </trkpt>
      <trkpt lat="46.45672" lon="-1.52289">
        <ele>12</ele>
        <time>2023-11-13T06:58:50Z</time>
      </trkpt>
      <trkpt lat="46.45702" lon="-1.52027">
        <ele>13</ele>
        <time>2023-11-13T07:02:54Z</time>
      </trkpt>
      <trkpt lat="46.45663" lon="-1.51487">
        <ele>15</ele>
        <time>2023-11-13T07:11:13Z</time>
      </trkpt>
      <trkpt lat="46.45604" lon="-1.51242">
        <ele>15</ele>
        <time>2023-11-13T07:15:11Z</time>
      </trkpt>
      <trkpt lat="46.45512" lon="-1.5095">
        <ele>12</ele>
        <time>2023-11-13T07:20:07Z</time>
      </trkpt>
      <trkpt lat="46.45261" lon="-1.51096">
        <ele>16</ele>
        <time>2023-11-13T07:26:08Z</time>
      </trkpt>
      <trkpt lat="46.45208" lon="-1.51341">
        <ele>17</ele>
        <time>2023-11-13T07:30:04Z</time>
      </trkpt>
      <trkpt lat="46.45161" lon="-1.51126">
        <ele>23</ele>
        <time>2023-11-13T07:33:31Z</time>
      </trkpt>
      <trkpt lat="46.45081" lon="-1.50972">
        <ele>20</ele>
        <time>2023-11-13T07:36:28Z</time>
      </trkpt>
      <trkpt lat="46.45107" lon="-1.50731">
        <ele>14</ele>
        <time>2023-11-13T07:40:13Z</time>
      </trkpt>
      <trkpt lat="46.45087" lon="-1.50508">
        <ele>14</ele>
        <time>2023-11-13T07:43:39Z</time>
      </trkpt>
      <trkpt lat="46.44767" lon="-1.5056">
        <ele>13</ele>
        <time>2023-11-13T07:50:49Z</time>
      </trkpt>
      <trkpt lat="46.44528" lon="-1.50688">
        <ele>11</ele>
        <time>2023-11-13T07:56:29Z</time>
      </trkpt>
      <trkpt lat="46.44315" lon="-1.50791">
        <ele>13</ele>
        <time>2023-11-13T08:01:29Z</time>
      </trkpt>
      <trkpt lat="46.44179" lon="-1.50963">
        <ele>13</ele>
        <time>2023-11-13T08:05:29Z</time>
      </trkpt>
      <trkpt lat="46.4396" lon="-1.51311">
        <ele>7</ele>
        <time>2023-11-13T08:12:43Z</time>
      </trkpt>
      <trkpt lat="46.44087" lon="-1.51482">
        <ele>12</ele>
        <time>2023-11-13T08:16:34Z</time>
      </trkpt>
      <trkpt lat="46.44081" lon="-1.51654">
        <ele>10</ele>
        <time>2023-11-13T08:19:12Z</time>
      </trkpt>
      <trkpt lat="46.44028" lon="-1.51796">
        <ele>5</ele>
        <time>2023-11-13T08:21:41Z</time>
      </trkpt>
      <trkpt lat="46.44072" lon="-1.52186">
        <ele>10</ele>
        <time>2023-11-13T08:27:44Z</time>
      </trkpt>
      <trkpt lat="46.44019" lon="-1.52396">
        <ele>13</ele>
        <time>2023-11-13T08:31:10Z</time>
      </trkpt>
      <trkpt lat="46.44046" lon="-1.52559">
        <ele>14</ele>
        <time>2023-11-13T08:33:44Z</time>
      </trkpt>
      <trkpt lat="46.44226" lon="-1.52675">
        <ele>15</ele>
        <time>2023-11-13T08:38:07Z</time>
      </trkpt>
      <trkpt lat="46.44498" lon="-1.52589">
        <ele>17</ele>
        <time>2023-11-13T08:44:18Z</time>
      </trkpt>
      <trkpt lat="46.44776" lon="-1.52551">
        <ele>18</ele>
        <time>2023-11-13T08:50:31Z</time>
      </trkpt>
    </trkseg>
  </trk>
</gpx>